createdAt,value
2023-05-21T00:00:40.014Z,100.00
2023-05-21T00:03:13.853Z,100.00
2023-05-21T00:05:47.689Z,100.00
2023-05-21T00:08:15.242Z,100.00
2023-05-21T00:10:42.483Z,100.00
2023-05-21T00:13:10.574Z,100.00
2023-05-21T00:15:38.886Z,100.00
2023-05-21T00:18:06.463Z,100.00
2023-05-21T00:20:34.042Z,100.00
2023-05-21T00:23:05.289Z,100.00
2023-05-21T00:25:32.670Z,100.00
2023-05-21T00:27:59.939Z,100.00
2023-05-21T00:30:27.232Z,100.00
2023-05-21T00:32:54.718Z,100.00
2023-05-21T00:35:22.497Z,100.00
2023-05-21T00:37:50.177Z,100.00
2023-05-21T00:40:19.533Z,100.00
2023-05-21T00:42:47.970Z,100.00
2023-05-21T00:45:16.355Z,100.00
2023-05-21T00:47:45.993Z,100.00
2023-05-21T00:50:15.177Z,100.00
2023-05-21T00:52:45.723Z,100.00
2023-05-21T00:55:13.473Z,100.00
2023-05-21T00:57:42.567Z,100.00
2023-05-21T01:00:11.136Z,100.00
2023-05-21T01:02:38.843Z,100.00
2023-05-21T01:05:07.232Z,100.00
2023-05-21T01:07:41.467Z,100.00
2023-05-21T01:10:11.827Z,100.00
2023-05-21T01:12:43.780Z,100.00
2023-05-21T01:15:14.214Z,100.00
2023-05-21T01:17:42.579Z,100.00
2023-05-21T01:20:11.764Z,100.00
2023-05-21T01:22:54.244Z,100.00
2023-05-21T01:25:24.172Z,100.00
2023-05-21T01:27:54.316Z,100.00
2023-05-21T01:30:24.854Z,100.00
2023-05-21T01:33:13.035Z,100.00
2023-05-21T01:36:14.068Z,100.00
2023-05-21T01:39:02.066Z,100.00
2023-05-21T01:41:38.465Z,100.00
2023-05-21T01:44:08.725Z,100.00
2023-05-21T01:46:37.750Z,100.00
2023-05-21T01:49:08.663Z,100.00
2023-05-21T01:51:37.529Z,100.00
2023-05-21T01:54:05.077Z,100.00
2023-05-21T01:56:34.002Z,100.00
2023-05-21T01:59:01.539Z,100.00
2023-05-21T02:01:30.377Z,100.00
2023-05-21T02:03:58.446Z,100.00
2023-05-21T02:06:26.500Z,100.00
2023-05-21T02:08:54.053Z,100.00
2023-05-21T02:11:22.347Z,100.00
2023-05-21T02:13:49.686Z,100.00
2023-05-21T02:16:17.248Z,100.00
2023-05-21T02:18:44.887Z,100.00
2023-05-21T02:21:12.419Z,100.00
2023-05-21T02:23:40.182Z,100.00
2023-05-21T02:26:07.450Z,100.00
2023-05-21T02:28:36.335Z,100.00
2023-05-21T02:31:04.040Z,100.00
2023-05-21T02:33:31.462Z,100.00
2023-05-21T02:36:00.139Z,100.00
2023-05-21T02:38:27.468Z,100.00
2023-05-21T02:40:54.860Z,100.00
2023-05-21T02:43:22.490Z,100.00
2023-05-21T02:45:51.478Z,100.00
2023-05-21T02:48:18.865Z,100.00
2023-05-21T02:50:46.290Z,100.00
2023-05-21T02:53:13.534Z,100.00
2023-05-21T02:55:42.042Z,100.00
2023-05-21T02:58:09.973Z,100.00
2023-05-21T03:00:37.376Z,100.00
2023-05-21T03:03:04.990Z,100.00
2023-05-21T03:05:32.355Z,100.00
2023-05-21T03:07:59.731Z,100.00
2023-05-21T03:10:27.008Z,100.00
2023-05-21T03:12:54.911Z,100.00
2023-05-21T03:15:24.157Z,100.00
2023-05-21T03:17:54.239Z,100.00
2023-05-21T03:20:22.522Z,100.00
2023-05-21T03:22:49.927Z,100.00
2023-05-21T03:25:17.336Z,100.00
2023-05-21T03:27:44.841Z,100.00
2023-05-21T03:30:38.423Z,100.00
2023-05-21T03:33:42.313Z,100.00
2023-05-21T03:36:23.708Z,100.00
2023-05-21T03:38:50.974Z,100.00
2023-05-21T03:41:19.057Z,100.00
2023-05-21T03:43:53.134Z,100.00
2023-05-21T03:46:23.053Z,100.00
2023-05-21T03:49:02.378Z,100.00
2023-05-21T03:51:31.935Z,100.00
2023-05-21T03:54:00.277Z,100.00
2023-05-21T03:56:27.843Z,100.00
2023-05-21T03:58:58.128Z,100.00
2023-05-21T04:01:25.768Z,100.00
2023-05-21T04:03:54.502Z,100.00
2023-05-21T04:06:24.147Z,100.00
2023-05-21T04:08:52.217Z,100.00
2023-05-21T04:11:19.861Z,100.00
2023-05-21T04:13:48.201Z,100.00
2023-05-21T04:16:19.273Z,100.00
2023-05-21T04:18:50.574Z,100.00
2023-05-21T04:21:23.607Z,100.00
2023-05-21T04:23:50.867Z,100.00
2023-05-21T04:26:29.537Z,100.00
2023-05-21T04:29:00.388Z,100.00
2023-05-21T04:31:27.715Z,100.00
2023-05-21T04:33:55.062Z,100.00
2023-05-21T04:36:22.329Z,100.00
2023-05-21T04:38:49.910Z,100.00
2023-05-21T04:41:19.021Z,100.00
2023-05-21T04:43:46.590Z,100.00
2023-05-21T04:46:15.523Z,100.00
2023-05-21T04:48:42.962Z,100.00
2023-05-21T04:51:10.928Z,100.00
2023-05-21T04:53:38.825Z,100.00
2023-05-21T04:56:07.321Z,100.00
2023-05-21T04:58:34.669Z,100.00
2023-05-21T05:01:04.550Z,100.00
2023-05-21T05:03:31.962Z,100.00
2023-05-21T05:06:00.339Z,100.00
2023-05-21T05:08:27.852Z,100.00
2023-05-21T05:10:55.507Z,100.00
2023-05-21T05:13:22.816Z,100.00
2023-05-21T05:15:51.471Z,100.00
2023-05-21T05:18:20.446Z,100.00
2023-05-21T05:20:48.947Z,100.00
2023-05-21T05:23:16.298Z,100.00
2023-05-21T05:25:43.623Z,100.00
2023-05-21T05:28:11.178Z,100.00
2023-05-21T05:30:38.753Z,100.00
2023-05-21T05:33:17.592Z,100.00
2023-05-21T05:35:44.924Z,100.00
2023-05-21T05:38:13.609Z,100.00
2023-05-21T05:40:41.054Z,100.00
2023-05-21T05:43:09.014Z,100.00
2023-05-21T05:45:36.636Z,100.00
2023-05-21T05:48:09.965Z,100.00
2023-05-21T05:50:37.320Z,100.00
2023-05-21T05:53:04.724Z,100.00
2023-05-21T05:55:31.980Z,100.00
2023-05-21T05:58:00.657Z,100.00
2023-05-21T06:00:28.126Z,100.00
2023-05-21T06:02:56.931Z,100.00
2023-05-21T06:05:25.566Z,100.00
2023-05-21T06:07:53.916Z,100.00
2023-05-21T06:10:21.270Z,100.00
2023-05-21T06:12:48.871Z,100.00
2023-05-21T06:15:16.645Z,100.00
2023-05-21T06:17:44.129Z,100.00
2023-05-21T06:20:13.173Z,100.00
2023-05-21T06:22:40.747Z,100.00
2023-05-21T06:25:10.719Z,100.00
2023-05-21T06:27:38.864Z,100.00
2023-05-21T06:30:11.529Z,100.00
2023-05-21T06:32:40.315Z,100.00
2023-05-21T06:35:08.489Z,100.00
2023-05-21T06:37:38.020Z,100.00
2023-05-21T06:40:06.570Z,100.00
2023-05-21T06:42:35.067Z,100.00
2023-05-21T06:45:37.853Z,100.00
2023-05-21T06:48:28.642Z,100.00
2023-05-21T06:50:55.883Z,100.00
2023-05-21T06:53:24.557Z,100.00
2023-05-21T06:55:53.856Z,100.00
2023-05-21T06:58:35.764Z,100.00
2023-05-21T07:01:03.200Z,100.00
2023-05-21T07:03:46.628Z,100.00
2023-05-21T07:06:14.097Z,100.00
2023-05-21T07:08:41.329Z,100.00
2023-05-21T07:11:09.318Z,100.00
2023-05-21T07:13:38.028Z,100.00
2023-05-21T07:16:05.952Z,100.00
2023-05-21T07:18:33.243Z,100.00
2023-05-21T07:21:01.690Z,100.00
2023-05-21T07:23:29.386Z,100.00
2023-05-21T07:25:56.713Z,100.00
2023-05-21T07:28:24.313Z,100.00
2023-05-21T07:30:51.685Z,100.00
2023-05-21T07:33:23.739Z,100.00
2023-05-21T07:35:52.643Z,100.00
2023-05-21T07:38:20.078Z,100.00
2023-05-21T07:40:47.432Z,100.00
2023-05-21T07:43:15.870Z,100.00
2023-05-21T07:45:43.251Z,100.00
2023-05-21T07:48:11.780Z,100.00
2023-05-21T07:50:52.697Z,100.00
2023-05-21T07:53:20.414Z,100.00
2023-05-21T07:55:48.341Z,100.00
2023-05-21T07:58:20.132Z,100.00
2023-05-21T08:00:48.712Z,100.00
2023-05-21T08:03:17.566Z,100.00
2023-05-21T08:05:50.832Z,100.00
2023-05-21T08:08:22.118Z,100.00
2023-05-21T08:10:51.294Z,98.51
2023-05-21T08:13:19.093Z,96.91
2023-05-21T08:15:52.070Z,96.14
2023-05-21T08:18:23.808Z,93.82
2023-05-21T08:20:52.339Z,93.01
2023-05-21T08:23:21.136Z,92.60
2023-05-21T08:25:53.664Z,92.83
2023-05-21T08:28:23.686Z,93.64
2023-05-21T08:30:52.373Z,91.52
2023-05-21T08:33:21.364Z,92.73
2023-05-21T08:35:49.267Z,90.17
2023-05-21T08:38:30.591Z,86.67
2023-05-21T08:41:12.548Z,89.37
2023-05-21T08:43:41.119Z,88.23
2023-05-21T08:46:10.271Z,85.60
2023-05-21T08:48:40.889Z,83.75
2023-05-21T08:51:08.252Z,84.38
2023-05-21T08:53:42.444Z,84.69
2023-05-21T08:56:13.178Z,80.79
2023-05-21T08:58:49.005Z,78.38
2023-05-21T09:01:21.927Z,78.09
2023-05-21T09:04:18.908Z,77.25
2023-05-21T09:06:48.583Z,74.85
2023-05-21T09:09:39.259Z,76.05
2023-05-21T09:12:08.794Z,76.76
2023-05-21T09:14:38.910Z,72.69
2023-05-21T09:17:16.616Z,72.11
2023-05-21T09:20:18.885Z,70.52
2023-05-21T09:22:52.965Z,72.53
2023-05-21T09:25:30.426Z,71.01
2023-05-21T09:28:02.897Z,73.56
2023-05-21T09:30:32.499Z,76.39
2023-05-21T09:33:01.773Z,73.93
2023-05-21T09:35:29.512Z,73.07
2023-05-21T09:37:57.684Z,72.71
2023-05-21T09:40:25.537Z,71.03
2023-05-21T09:42:55.923Z,72.13
2023-05-21T09:45:28.703Z,72.77
2023-05-21T09:47:58.767Z,74.33
2023-05-21T09:50:28.450Z,76.33
2023-05-21T09:52:56.387Z,72.59
2023-05-21T09:55:27.104Z,71.08
2023-05-21T09:57:54.464Z,70.41
2023-05-21T10:00:27.390Z,68.70
2023-05-21T10:03:00.953Z,70.86
2023-05-21T10:05:30.943Z,66.75
2023-05-21T10:08:04.485Z,66.99
2023-05-21T10:10:32.780Z,67.69
2023-05-21T10:13:12.584Z,67.83
2023-05-21T10:15:50.106Z,66.47
2023-05-21T10:18:24.322Z,67.87
2023-05-21T10:20:53.495Z,66.38
2023-05-21T10:23:23.307Z,66.20
2023-05-21T10:25:52.446Z,66.81
2023-05-21T10:28:20.813Z,68.97
2023-05-21T10:30:51.860Z,69.08
2023-05-21T10:33:20.880Z,69.35
2023-05-21T10:35:53.189Z,69.50
2023-05-21T10:38:22.627Z,67.27
2023-05-21T10:41:09.573Z,65.32
2023-05-21T10:44:04.050Z,63.57
2023-05-21T10:47:21.901Z,63.76
2023-05-21T10:50:26.899Z,61.96
2023-05-21T10:53:43.799Z,60.38
2023-05-21T10:57:12.308Z,61.85
2023-05-21T10:59:50.329Z,58.54
2023-05-21T11:02:21.036Z,59.36
2023-05-21T11:05:01.318Z,58.29
2023-05-21T11:08:02.426Z,59.77
2023-05-21T11:10:41.356Z,59.15
2023-05-21T11:13:50.872Z,59.62
2023-05-21T11:16:21.121Z,60.09
2023-05-21T11:18:49.565Z,58.99
2023-05-21T11:21:40.257Z,57.71
2023-05-21T11:24:08.794Z,58.40
2023-05-21T11:26:48.100Z,57.59
2023-05-21T11:29:17.151Z,57.38
2023-05-21T11:32:02.672Z,55.64
2023-05-21T11:34:46.421Z,57.78
2023-05-21T11:37:33.293Z,59.67
2023-05-21T11:40:23.888Z,58.41
2023-05-21T11:42:57.237Z,59.13
2023-05-21T11:45:31.467Z,60.57
2023-05-21T11:48:00.221Z,62.21
2023-05-21T11:50:30.609Z,61.67
2023-05-21T11:52:59.913Z,60.35
2023-05-21T11:55:27.918Z,60.69
2023-05-21T11:57:55.699Z,62.09
2023-05-21T12:00:23.291Z,62.33
2023-05-21T12:02:55.579Z,62.76
2023-05-21T12:05:24.177Z,62.46
2023-05-21T12:07:51.609Z,62.75
2023-05-21T12:10:23.527Z,62.49
2023-05-21T12:12:56.533Z,62.79
2023-05-21T12:15:27.066Z,62.31
2023-05-21T12:17:56.215Z,62.73
2023-05-21T12:20:26.275Z,62.02
2023-05-21T12:22:54.205Z,62.55
2023-05-21T12:25:22.303Z,64.60
2023-05-21T12:27:57.884Z,63.46
2023-05-21T12:30:26.672Z,64.12
2023-05-21T12:32:54.111Z,63.21
2023-05-21T12:35:24.235Z,63.99
2023-05-21T12:37:52.581Z,63.32
2023-05-21T12:40:20.793Z,63.48
2023-05-21T12:42:48.370Z,63.96
2023-05-21T12:45:18.668Z,64.53
2023-05-21T12:47:50.734Z,63.87
2023-05-21T12:50:21.722Z,63.63
2023-05-21T12:52:49.123Z,63.46
2023-05-21T12:55:17.642Z,63.72
2023-05-21T12:57:45.684Z,61.96
2023-05-21T13:00:14.663Z,62.40
2023-05-21T13:02:45.755Z,63.63
2023-05-21T13:05:18.468Z,64.73
2023-05-21T13:07:51.109Z,63.14
2023-05-21T13:10:18.978Z,63.20
2023-05-21T13:12:46.865Z,61.99
2023-05-21T13:15:15.171Z,59.87
2023-05-21T13:17:42.580Z,59.83
2023-05-21T13:20:12.160Z,58.34
2023-05-21T13:22:48.023Z,57.60
2023-05-21T13:25:21.545Z,56.27
2023-05-21T13:27:51.333Z,56.44
2023-05-21T13:30:20.501Z,56.71
2023-05-21T13:32:49.075Z,55.67
2023-05-21T13:35:17.609Z,56.43
2023-05-21T13:37:46.006Z,55.54
2023-05-21T13:40:16.888Z,55.80
2023-05-21T13:42:50.014Z,55.12
2023-05-21T13:45:21.215Z,54.71
2023-05-21T13:47:48.982Z,54.87
2023-05-21T13:50:17.198Z,56.30
2023-05-21T13:52:45.239Z,56.33
2023-05-21T13:55:12.702Z,56.86
2023-05-21T13:57:40.779Z,56.97
2023-05-21T14:00:10.570Z,57.10
2023-05-21T14:02:38.196Z,56.11
2023-05-21T14:05:06.249Z,55.93
2023-05-21T14:07:33.731Z,56.04
2023-05-21T14:10:01.614Z,55.38
2023-05-21T14:12:29.165Z,55.70
2023-05-21T14:14:56.427Z,55.96
2023-05-21T14:17:23.763Z,55.25
2023-05-21T14:19:51.119Z,54.46
2023-05-21T14:22:19.824Z,53.01
2023-05-21T14:24:51.144Z,51.85
2023-05-21T14:27:18.446Z,51.20
2023-05-21T14:29:45.919Z,50.02
2023-05-21T14:32:13.258Z,49.47
2023-05-21T14:34:41.252Z,50.01
2023-05-21T14:37:08.589Z,49.64
2023-05-21T14:39:35.916Z,51.33
2023-05-21T14:42:04.973Z,51.69
2023-05-21T14:44:32.758Z,51.24
2023-05-21T14:47:00.151Z,51.19
2023-05-21T14:49:29.678Z,52.45
2023-05-21T14:51:56.993Z,53.32
2023-05-21T14:54:24.343Z,51.98
2023-05-21T14:56:51.677Z,52.04
2023-05-21T14:59:19.018Z,49.84
2023-05-21T15:01:46.532Z,49.55
2023-05-21T15:04:14.186Z,51.17
2023-05-21T15:06:42.142Z,50.69
2023-05-21T15:09:09.477Z,49.88
2023-05-21T15:11:36.862Z,50.07
2023-05-21T15:14:04.166Z,50.01
2023-05-21T15:16:31.576Z,49.48
2023-05-21T15:18:58.989Z,50.38
2023-05-21T15:21:28.108Z,51.32
2023-05-21T15:23:55.855Z,50.72
2023-05-21T15:26:25.355Z,50.04
2023-05-21T15:28:52.996Z,49.24
2023-05-21T15:31:20.495Z,49.20
2023-05-21T15:33:47.905Z,49.10
2023-05-21T15:36:15.368Z,48.70
2023-05-21T15:38:42.737Z,48.79
2023-05-21T15:41:10.134Z,47.86
2023-05-21T15:43:38.120Z,48.97
2023-05-21T15:46:05.533Z,50.77
2023-05-21T15:48:32.855Z,51.88
2023-05-21T15:51:00.250Z,53.21
2023-05-21T15:53:27.593Z,54.74
2023-05-21T15:55:54.973Z,54.52
2023-05-21T15:58:23.741Z,56.30
2023-05-21T16:00:51.290Z,56.83
2023-05-21T16:03:18.662Z,58.09
2023-05-21T16:05:46.135Z,58.37
2023-05-21T16:08:13.446Z,59.44
2023-05-21T16:10:40.706Z,59.87
2023-05-21T16:13:08.022Z,59.73
2023-05-21T16:15:35.582Z,60.44
2023-05-21T16:18:03.164Z,60.47
2023-05-21T16:20:30.989Z,61.27
2023-05-21T16:22:58.328Z,61.72
2023-05-21T16:25:26.022Z,62.50
2023-05-21T16:27:53.335Z,62.17
2023-05-21T16:30:21.014Z,63.04
2023-05-21T16:32:48.384Z,63.54
2023-05-21T16:35:15.901Z,63.82
2023-05-21T16:37:43.180Z,65.21
2023-05-21T16:40:11.351Z,64.43
2023-05-21T16:42:39.818Z,64.93
2023-05-21T16:45:08.171Z,64.91
2023-05-21T16:47:35.575Z,65.29
2023-05-21T16:50:03.253Z,64.61
2023-05-21T16:52:30.561Z,65.11
2023-05-21T16:54:57.817Z,65.08
2023-05-21T16:57:25.149Z,65.35
2023-05-21T16:59:52.481Z,65.73
2023-05-21T17:02:19.994Z,66.65
2023-05-21T17:04:48.443Z,66.19
2023-05-21T17:07:16.570Z,66.14
2023-05-21T17:09:43.974Z,66.19
2023-05-21T17:12:11.280Z,65.75
2023-05-21T17:14:40.557Z,66.72
2023-05-21T17:17:07.946Z,67.05
2023-05-21T17:19:35.473Z,66.59
2023-05-21T17:22:03.072Z,67.09
2023-05-21T17:24:30.914Z,67.48
2023-05-21T17:26:58.421Z,68.06
2023-05-21T17:29:26.111Z,68.40
2023-05-21T17:31:53.673Z,69.13
2023-05-21T17:34:21.332Z,69.39
2023-05-21T17:36:48.665Z,69.41
2023-05-21T17:39:16.092Z,70.31
2023-05-21T17:41:43.421Z,69.75
2023-05-21T17:44:11.602Z,70.00
2023-05-21T17:46:39.012Z,70.12
2023-05-21T17:49:08.284Z,70.30
2023-05-21T17:51:37.030Z,70.72
2023-05-21T17:54:05.754Z,70.66
2023-05-21T17:56:39.139Z,71.20
2023-05-21T17:59:11.142Z,71.45
2023-05-21T18:01:40.399Z,72.40
2023-05-21T18:04:12.334Z,72.74
2023-05-21T18:06:40.162Z,72.97
2023-05-21T18:09:08.135Z,73.32
2023-05-21T18:11:39.063Z,73.93
2023-05-21T18:14:07.582Z,74.00
2023-05-21T18:16:34.944Z,74.90
2023-05-21T18:19:05.609Z,75.26
2023-05-21T18:21:35.353Z,74.98
2023-05-21T18:24:03.405Z,74.88
2023-05-21T18:26:30.897Z,75.22
2023-05-21T18:28:59.019Z,75.84
2023-05-21T18:31:26.485Z,76.13
2023-05-21T18:33:54.176Z,76.40
2023-05-21T18:36:21.520Z,76.72
2023-05-21T18:38:48.992Z,77.16
2023-05-21T18:41:16.855Z,77.59
2023-05-21T18:43:44.203Z,78.50
2023-05-21T18:46:11.730Z,78.68
2023-05-21T18:48:39.113Z,79.08
2023-05-21T18:51:06.395Z,80.15
2023-05-21T18:53:33.827Z,80.44
2023-05-21T18:56:01.076Z,80.86
2023-05-21T18:58:29.325Z,81.29
2023-05-21T19:00:56.586Z,81.58
2023-05-21T19:03:23.872Z,81.75
2023-05-21T19:05:51.173Z,83.03
2023-05-21T19:08:18.470Z,82.79
2023-05-21T19:10:45.827Z,84.00
2023-05-21T19:13:13.388Z,84.45
2023-05-21T19:15:40.760Z,84.73
2023-05-21T19:18:08.436Z,85.01
2023-05-21T19:20:36.745Z,85.91
2023-05-21T19:23:04.575Z,86.15
2023-05-21T19:25:32.175Z,87.38
2023-05-21T19:28:00.830Z,87.38
2023-05-21T19:30:28.245Z,88.23
2023-05-21T19:32:55.820Z,88.86
2023-05-21T19:35:23.132Z,88.89
2023-05-21T19:37:50.606Z,89.52
2023-05-21T19:40:17.981Z,89.18
2023-05-21T19:42:45.365Z,90.64
2023-05-21T19:45:15.482Z,92.28
2023-05-21T19:47:43.912Z,93.30
2023-05-21T19:50:11.856Z,93.63
2023-05-21T19:52:39.561Z,95.52
2023-05-21T19:55:10.216Z,96.76
2023-05-21T19:57:38.002Z,98.93
2023-05-21T20:00:06.044Z,99.42
2023-05-21T20:02:42.800Z,99.75
2023-05-21T20:05:10.533Z,100.00
2023-05-21T20:07:38.064Z,100.00
2023-05-21T20:10:06.427Z,100.00
2023-05-21T20:12:33.821Z,100.00
2023-05-21T20:15:01.284Z,100.00
2023-05-21T20:17:30.467Z,100.00
2023-05-21T20:19:59.119Z,100.00
2023-05-21T20:22:26.933Z,100.00
2023-05-21T20:24:55.428Z,100.00
2023-05-21T20:27:23.217Z,100.00
2023-05-21T20:29:50.575Z,100.00
2023-05-21T20:32:17.994Z,100.00
2023-05-21T20:34:58.821Z,100.00
2023-05-21T20:37:32.529Z,100.00
2023-05-21T20:39:59.985Z,100.00
2023-05-21T20:42:34.104Z,100.00
2023-05-21T20:45:03.061Z,100.00
2023-05-21T20:47:30.439Z,100.00
2023-05-21T20:50:00.087Z,100.00
2023-05-21T20:52:27.513Z,100.00
2023-05-21T20:54:55.323Z,100.00
2023-05-21T20:57:22.751Z,100.00
2023-05-21T20:59:53.766Z,100.00
2023-05-21T21:02:22.877Z,100.00
2023-05-21T21:04:50.996Z,100.00
2023-05-21T21:07:19.569Z,100.00
2023-05-21T21:09:49.196Z,100.00
2023-05-21T21:12:26.040Z,100.00
2023-05-21T21:14:54.770Z,100.00
2023-05-21T21:17:22.399Z,100.00
2023-05-21T21:19:49.795Z,100.00
2023-05-21T21:22:18.260Z,100.00
2023-05-21T21:24:45.898Z,100.00
2023-05-21T21:27:13.379Z,100.00
2023-05-21T21:29:40.697Z,100.00
2023-05-21T21:32:08.706Z,100.00
2023-05-21T21:34:36.041Z,100.00
2023-05-21T21:37:04.621Z,100.00
2023-05-21T21:39:31.942Z,100.00
2023-05-21T21:41:59.469Z,100.00
2023-05-21T21:44:26.777Z,100.00
2023-05-21T21:46:54.085Z,100.00
2023-05-21T21:49:21.403Z,100.00
2023-05-21T21:51:51.247Z,100.00
2023-05-21T21:54:18.548Z,100.00
2023-05-21T21:56:45.806Z,100.00
2023-05-21T21:59:13.045Z,100.00
2023-05-21T22:01:40.995Z,100.00
2023-05-21T22:04:08.354Z,100.00
2023-05-21T22:06:38.885Z,100.00
2023-05-21T22:09:07.506Z,100.00
2023-05-21T22:11:34.897Z,100.00
2023-05-21T22:14:02.529Z,100.00
2023-05-21T22:16:29.861Z,100.00
2023-05-21T22:18:58.110Z,100.00
2023-05-21T22:21:29.320Z,100.00
2023-05-21T22:23:56.685Z,100.00
2023-05-21T22:26:23.976Z,100.00
2023-05-21T22:28:51.577Z,100.00
2023-05-21T22:31:18.970Z,100.00
2023-05-21T22:33:46.666Z,100.00
2023-05-21T22:36:13.990Z,100.00
2023-05-21T22:38:41.330Z,100.00
2023-05-21T22:41:09.981Z,100.00
2023-05-21T22:43:38.151Z,100.00
2023-05-21T22:46:05.671Z,100.00
2023-05-21T22:48:34.432Z,100.00
2023-05-21T22:51:01.995Z,100.00
2023-05-21T22:53:29.540Z,100.00
2023-05-21T22:55:56.794Z,100.00
2023-05-21T22:58:24.164Z,100.00
2023-05-21T23:00:51.453Z,100.00
2023-05-21T23:03:18.752Z,100.00
2023-05-21T23:05:46.321Z,100.00
2023-05-21T23:08:13.879Z,100.00
2023-05-21T23:10:41.385Z,100.00
2023-05-21T23:13:08.903Z,100.00
2023-05-21T23:15:38.760Z,100.00
2023-05-21T23:18:07.691Z,100.00
2023-05-21T23:20:35.272Z,100.00
2023-05-21T23:23:02.756Z,100.00
2023-05-21T23:25:30.202Z,100.00
2023-05-21T23:27:57.532Z,100.00
2023-05-21T23:30:25.062Z,100.00
2023-05-21T23:32:52.695Z,100.00
2023-05-21T23:35:20.283Z,100.00
2023-05-21T23:37:48.040Z,100.00
2023-05-21T23:40:15.952Z,100.00
2023-05-21T23:42:43.994Z,100.00
2023-05-21T23:45:11.775Z,100.00
2023-05-21T23:47:39.209Z,100.00
2023-05-21T23:50:07.874Z,100.00
2023-05-21T23:52:35.787Z,100.00
2023-05-21T23:55:03.079Z,100.00
2023-05-21T23:57:30.556Z,100.00
2023-05-21T23:59:58.874Z,100.00
